sensor_id;sensor_type;location;lat;lon;timestamp;P1;durP1;ratioP1;P2;durP2;ratioP2
55172;SDS011;41061;52.822;6.860;2022-12-19T00:00:18;37.47;;;19.40;;
55172;SDS011;41061;52.822;6.860;2022-12-19T00:02:45;42.60;;;20.25;;
55172;SDS011;41061;52.822;6.860;2022-12-19T00:05:10;37.63;;;20.63;;
55172;SDS011;41061;52.822;6.860;2022-12-19T00:07:37;17.17;;;8.98;;
55172;SDS011;41061;52.822;6.860;2022-12-19T00:10:04;32.00;;;16.40;;
55172;SDS011;41061;52.822;6.860;2022-12-19T00:12:33;39.40;;;20.92;;
55172;SDS011;41061;52.822;6.860;2022-12-19T00:14:59;34.00;;;19.02;;
55172;SDS011;41061;52.822;6.860;2022-12-19T00:17:24;36.35;;;18.00;;
55172;SDS011;41061;52.822;6.860;2022-12-19T00:19:50;34.53;;;17.17;;
55172;SDS011;41061;52.822;6.860;2022-12-19T00:22:19;42.35;;;20.80;;
55172;SDS011;41061;52.822;6.860;2022-12-19T00:24:46;35.42;;;17.55;;
55172;SDS011;41061;52.822;6.860;2022-12-19T00:27:12;32.75;;;17.55;;
55172;SDS011;41061;52.822;6.860;2022-12-19T00:29:38;37.70;;;17.60;;
55172;SDS011;41061;52.822;6.860;2022-12-19T00:32:03;36.40;;;19.67;;
55172;SDS011;41061;52.822;6.860;2022-12-19T00:34:29;39.47;;;20.40;;
55172;SDS011;41061;52.822;6.860;2022-12-19T00:36:55;38.22;;;19.23;;
55172;SDS011;41061;52.822;6.860;2022-12-19T00:39:20;38.13;;;19.90;;
55172;SDS011;41061;52.822;6.860;2022-12-19T00:41:47;35.60;;;17.60;;
55172;SDS011;41061;52.822;6.860;2022-12-19T00:44:15;36.75;;;18.38;;
55172;SDS011;41061;52.822;6.860;2022-12-19T00:46:41;37.17;;;19.23;;
55172;SDS011;41061;52.822;6.860;2022-12-19T00:49:08;35.15;;;20.90;;
55172;SDS011;41061;52.822;6.860;2022-12-19T00:51:34;38.03;;;20.40;;
55172;SDS011;41061;52.822;6.860;2022-12-19T00:54:01;39.83;;;20.05;;
55172;SDS011;41061;52.822;6.860;2022-12-19T00:56:28;34.00;;;15.85;;
55172;SDS011;41061;52.822;6.860;2022-12-19T00:58:56;39.10;;;19.65;;
55172;SDS011;41061;52.822;6.860;2022-12-19T01:01:23;39.28;;;20.88;;
55172;SDS011;41061;52.822;6.860;2022-12-19T01:03:54;37.40;;;19.27;;
55172;SDS011;41061;52.822;6.860;2022-12-19T01:06:22;43.80;;;18.95;;
55172;SDS011;41061;52.822;6.860;2022-12-19T01:08:48;41.45;;;18.90;;
55172;SDS011;41061;52.822;6.860;2022-12-19T01:11:14;35.63;;;18.77;;
55172;SDS011;41061;52.822;6.860;2022-12-19T01:13:40;41.22;;;20.42;;
55172;SDS011;41061;52.822;6.860;2022-12-19T01:16:07;35.95;;;17.35;;
55172;SDS011;41061;52.822;6.860;2022-12-19T01:18:35;40.45;;;19.83;;
55172;SDS011;41061;52.822;6.860;2022-12-19T01:21:03;40.10;;;20.10;;
55172;SDS011;41061;52.822;6.860;2022-12-19T01:23:31;43.97;;;21.77;;
55172;SDS011;41061;52.822;6.860;2022-12-19T01:25:57;40.42;;;20.10;;
55172;SDS011;41061;52.822;6.860;2022-12-19T01:28:23;34.63;;;18.17;;
55172;SDS011;41061;52.822;6.860;2022-12-19T01:30:49;37.72;;;17.90;;
55172;SDS011;41061;52.822;6.860;2022-12-19T01:33:16;31.48;;;16.13;;
55172;SDS011;41061;52.822;6.860;2022-12-19T01:35:45;40.85;;;19.90;;
55172;SDS011;41061;52.822;6.860;2022-12-19T01:38:15;36.30;;;18.92;;
55172;SDS011;41061;52.822;6.860;2022-12-19T01:40:55;38.17;;;20.60;;
55172;SDS011;41061;52.822;6.860;2022-12-19T01:43:22;42.47;;;21.52;;
55172;SDS011;41061;52.822;6.860;2022-12-19T01:45:53;29.48;;;14.52;;
55172;SDS011;41061;52.822;6.860;2022-12-19T01:51:03;39.90;;;19.33;;
55172;SDS011;41061;52.822;6.860;2022-12-19T01:53:47;32.63;;;15.65;;
55172;SDS011;41061;52.822;6.860;2022-12-19T01:56:18;39.35;;;20.80;;
55172;SDS011;41061;52.822;6.860;2022-12-19T01:58:47;35.47;;;18.83;;
55172;SDS011;41061;52.822;6.860;2022-12-19T02:01:15;40.15;;;19.70;;
55172;SDS011;41061;52.822;6.860;2022-12-19T02:03:42;40.80;;;20.85;;
55172;SDS011;41061;52.822;6.860;2022-12-19T02:06:09;43.22;;;21.63;;
55172;SDS011;41061;52.822;6.860;2022-12-19T02:08:42;43.65;;;22.48;;
55172;SDS011;41061;52.822;6.860;2022-12-19T02:11:11;39.25;;;19.77;;
55172;SDS011;41061;52.822;6.860;2022-12-19T02:13:37;40.33;;;21.35;;
55172;SDS011;41061;52.822;6.860;2022-12-19T02:21:27;41.97;;;18.75;;
55172;SDS011;41061;52.822;6.860;2022-12-19T02:26:56;37.45;;;19.90;;
55172;SDS011;41061;52.822;6.860;2022-12-19T02:32:10;39.20;;;17.85;;
55172;SDS011;41061;52.822;6.860;2022-12-19T02:37:17;41.05;;;21.75;;
55172;SDS011;41061;52.822;6.860;2022-12-19T02:39:50;45.03;;;20.40;;
55172;SDS011;41061;52.822;6.860;2022-12-19T02:42:19;37.80;;;17.90;;
55172;SDS011;41061;52.822;6.860;2022-12-19T02:45:03;29.80;;;14.07;;
55172;SDS011;41061;52.822;6.860;2022-12-19T02:47:30;45.25;;;21.90;;
55172;SDS011;41061;52.822;6.860;2022-12-19T02:49:58;43.47;;;19.98;;
55172;SDS011;41061;52.822;6.860;2022-12-19T02:54:56;44.78;;;21.98;;
55172;SDS011;41061;52.822;6.860;2022-12-19T02:57:39;48.05;;;22.00;;
55172;SDS011;41061;52.822;6.860;2022-12-19T03:00:17;42.50;;;20.27;;
55172;SDS011;41061;52.822;6.860;2022-12-19T03:02:53;43.50;;;21.33;;
55172;SDS011;41061;52.822;6.860;2022-12-19T03:06:16;47.22;;;19.98;;
55172;SDS011;41061;52.822;6.860;2022-12-19T03:08:23;44.85;;;21.17;;
55172;SDS011;41061;52.822;6.860;2022-12-19T03:11:11;49.40;;;22.42;;
55172;SDS011;41061;52.822;6.860;2022-12-19T03:16:28;45.30;;;20.35;;
55172;SDS011;41061;52.822;6.860;2022-12-19T03:18:53;48.90;;;21.77;;
55172;SDS011;41061;52.822;6.860;2022-12-19T03:24:00;48.88;;;21.40;;
55172;SDS011;41061;52.822;6.860;2022-12-19T03:26:27;50.10;;;21.67;;
55172;SDS011;41061;52.822;6.860;2022-12-19T03:31:32;38.17;;;16.98;;
55172;SDS011;41061;52.822;6.860;2022-12-19T03:34:00;50.47;;;23.95;;
55172;SDS011;41061;52.822;6.860;2022-12-19T03:36:31;54.47;;;23.50;;
55172;SDS011;41061;52.822;6.860;2022-12-19T03:39:03;53.65;;;23.77;;
55172;SDS011;41061;52.822;6.860;2022-12-19T03:41:30;55.10;;;22.60;;
55172;SDS011;41061;52.822;6.860;2022-12-19T03:44:15;46.67;;;21.73;;
55172;SDS011;41061;52.822;6.860;2022-12-19T03:46:44;50.17;;;22.63;;
55172;SDS011;41061;52.822;6.860;2022-12-19T03:49:13;49.80;;;23.65;;
55172;SDS011;41061;52.822;6.860;2022-12-19T03:51:45;30.25;;;14.00;;
55172;SDS011;41061;52.822;6.860;2022-12-19T03:54:18;46.63;;;21.67;;
55172;SDS011;41061;52.822;6.860;2022-12-19T03:59:30;40.05;;;18.55;;
55172;SDS011;41061;52.822;6.860;2022-12-19T04:02:03;46.58;;;20.15;;
55172;SDS011;41061;52.822;6.860;2022-12-19T04:04:29;31.02;;;15.35;;
55172;SDS011;41061;52.822;6.860;2022-12-19T04:07:00;41.85;;;18.40;;
55172;SDS011;41061;52.822;6.860;2022-12-19T04:09:27;53.60;;;23.63;;
55172;SDS011;41061;52.822;6.860;2022-12-19T04:12:03;29.10;;;14.10;;
55172;SDS011;41061;52.822;6.860;2022-12-19T04:14:33;48.30;;;22.33;;
55172;SDS011;41061;52.822;6.860;2022-12-19T04:19:58;50.50;;;21.80;;
55172;SDS011;41061;52.822;6.860;2022-12-19T04:25:10;38.88;;;19.38;;
55172;SDS011;41061;52.822;6.860;2022-12-19T04:27:40;54.22;;;23.52;;
55172;SDS011;41061;52.822;6.860;2022-12-19T04:30:14;55.30;;;24.05;;
55172;SDS011;41061;52.822;6.860;2022-12-19T04:32:45;45.33;;;20.08;;
55172;SDS011;41061;52.822;6.860;2022-12-19T04:35:12;58.60;;;23.27;;
55172;SDS011;41061;52.822;6.860;2022-12-19T04:37:38;60.38;;;23.33;;
55172;SDS011;41061;52.822;6.860;2022-12-19T04:40:04;47.78;;;23.23;;
55172;SDS011;41061;52.822;6.860;2022-12-19T04:42:33;47.92;;;23.98;;
55172;SDS011;41061;52.822;6.860;2022-12-19T04:44:59;41.92;;;20.48;;
55172;SDS011;41061;52.822;6.860;2022-12-19T04:47:24;44.17;;;19.48;;
55172;SDS011;41061;52.822;6.860;2022-12-19T04:49:50;48.47;;;22.00;;
55172;SDS011;41061;52.822;6.860;2022-12-19T04:52:15;43.58;;;20.05;;
55172;SDS011;41061;52.822;6.860;2022-12-19T04:54:41;56.42;;;24.33;;
55172;SDS011;41061;52.822;6.860;2022-12-19T04:57:07;51.08;;;24.15;;
55172;SDS011;41061;52.822;6.860;2022-12-19T04:59:32;41.90;;;21.52;;
55172;SDS011;41061;52.822;6.860;2022-12-19T05:01:58;51.72;;;23.10;;
55172;SDS011;41061;52.822;6.860;2022-12-19T05:04:24;55.05;;;25.30;;
55172;SDS011;41061;52.822;6.860;2022-12-19T05:06:50;47.83;;;21.55;;
55172;SDS011;41061;52.822;6.860;2022-12-19T05:09:15;53.60;;;22.55;;
55172;SDS011;41061;52.822;6.860;2022-12-19T05:11:41;48.83;;;22.23;;
55172;SDS011;41061;52.822;6.860;2022-12-19T05:14:07;52.33;;;23.65;;
55172;SDS011;41061;52.822;6.860;2022-12-19T05:16:33;48.33;;;22.75;;
55172;SDS011;41061;52.822;6.860;2022-12-19T05:18:59;48.97;;;23.40;;
55172;SDS011;41061;52.822;6.860;2022-12-19T05:21:25;51.13;;;22.25;;
55172;SDS011;41061;52.822;6.860;2022-12-19T05:23:51;54.17;;;22.10;;
55172;SDS011;41061;52.822;6.860;2022-12-19T05:26:17;43.85;;;18.73;;
55172;SDS011;41061;52.822;6.860;2022-12-19T05:28:43;50.88;;;22.55;;
55172;SDS011;41061;52.822;6.860;2022-12-19T05:31:13;50.63;;;22.08;;
55172;SDS011;41061;52.822;6.860;2022-12-19T05:33:41;44.60;;;21.27;;
55172;SDS011;41061;52.822;6.860;2022-12-19T05:36:07;48.03;;;22.35;;
55172;SDS011;41061;52.822;6.860;2022-12-19T05:38:34;45.20;;;20.75;;
55172;SDS011;41061;52.822;6.860;2022-12-19T05:41:11;41.38;;;18.88;;
55172;SDS011;41061;52.822;6.860;2022-12-19T05:43:38;53.55;;;22.00;;
55172;SDS011;41061;52.822;6.860;2022-12-19T05:46:04;45.03;;;20.52;;
55172;SDS011;41061;52.822;6.860;2022-12-19T05:48:30;48.22;;;22.30;;
55172;SDS011;41061;52.822;6.860;2022-12-19T05:50:56;40.70;;;19.63;;
55172;SDS011;41061;52.822;6.860;2022-12-19T05:53:22;41.15;;;20.02;;
55172;SDS011;41061;52.822;6.860;2022-12-19T05:55:48;41.38;;;19.33;;
55172;SDS011;41061;52.822;6.860;2022-12-19T05:58:14;41.35;;;21.38;;
55172;SDS011;41061;52.822;6.860;2022-12-19T06:00:43;33.47;;;16.45;;
55172;SDS011;41061;52.822;6.860;2022-12-19T06:03:08;34.55;;;17.05;;
55172;SDS011;41061;52.822;6.860;2022-12-19T06:05:37;37.67;;;16.88;;
55172;SDS011;41061;52.822;6.860;2022-12-19T06:08:03;40.28;;;17.27;;
55172;SDS011;41061;52.822;6.860;2022-12-19T06:10:29;32.60;;;16.65;;
55172;SDS011;41061;52.822;6.860;2022-12-19T06:12:55;37.65;;;20.05;;
55172;SDS011;41061;52.822;6.860;2022-12-19T06:15:21;37.88;;;18.60;;
55172;SDS011;41061;52.822;6.860;2022-12-19T06:17:47;35.67;;;16.42;;
55172;SDS011;41061;52.822;6.860;2022-12-19T06:20:16;34.38;;;18.10;;
55172;SDS011;41061;52.822;6.860;2022-12-19T06:22:42;36.97;;;19.35;;
55172;SDS011;41061;52.822;6.860;2022-12-19T06:25:08;39.72;;;19.08;;
55172;SDS011;41061;52.822;6.860;2022-12-19T06:27:33;35.63;;;18.88;;
55172;SDS011;41061;52.822;6.860;2022-12-19T06:29:59;35.53;;;18.10;;
55172;SDS011;41061;52.822;6.860;2022-12-19T06:32:25;37.28;;;18.42;;
55172;SDS011;41061;52.822;6.860;2022-12-19T06:34:51;42.03;;;19.65;;
55172;SDS011;41061;52.822;6.860;2022-12-19T06:37:16;40.58;;;19.35;;
55172;SDS011;41061;52.822;6.860;2022-12-19T06:39:42;35.00;;;16.13;;
55172;SDS011;41061;52.822;6.860;2022-12-19T06:42:08;34.53;;;17.35;;
55172;SDS011;41061;52.822;6.860;2022-12-19T06:44:53;38.47;;;18.75;;
55172;SDS011;41061;52.822;6.860;2022-12-19T06:47:19;39.15;;;17.73;;
55172;SDS011;41061;52.822;6.860;2022-12-19T06:49:47;43.90;;;19.63;;
55172;SDS011;41061;52.822;6.860;2022-12-19T06:52:13;36.10;;;17.05;;
55172;SDS011;41061;52.822;6.860;2022-12-19T06:54:39;35.15;;;17.73;;
55172;SDS011;41061;52.822;6.860;2022-12-19T06:57:05;39.50;;;17.60;;
55172;SDS011;41061;52.822;6.860;2022-12-19T06:59:31;40.28;;;17.35;;
55172;SDS011;41061;52.822;6.860;2022-12-19T07:04:30;34.80;;;16.73;;
55172;SDS011;41061;52.822;6.860;2022-12-19T07:06:59;41.58;;;19.00;;
55172;SDS011;41061;52.822;6.860;2022-12-19T07:09:26;36.83;;;17.58;;
55172;SDS011;41061;52.822;6.860;2022-12-19T07:11:54;31.77;;;15.45;;
55172;SDS011;41061;52.822;6.860;2022-12-19T07:14:20;42.58;;;19.88;;
55172;SDS011;41061;52.822;6.860;2022-12-19T07:16:46;37.03;;;19.55;;
55172;SDS011;41061;52.822;6.860;2022-12-19T07:19:15;38.70;;;17.75;;
55172;SDS011;41061;52.822;6.860;2022-12-19T07:21:41;41.72;;;18.65;;
55172;SDS011;41061;52.822;6.860;2022-12-19T07:24:07;41.90;;;19.65;;
55172;SDS011;41061;52.822;6.860;2022-12-19T07:26:33;40.42;;;19.15;;
55172;SDS011;41061;52.822;6.860;2022-12-19T07:29:00;41.95;;;19.25;;
55172;SDS011;41061;52.822;6.860;2022-12-19T07:31:26;39.33;;;17.45;;
55172;SDS011;41061;52.822;6.860;2022-12-19T07:33:52;44.17;;;18.40;;
55172;SDS011;41061;52.822;6.860;2022-12-19T07:36:17;35.00;;;17.63;;
55172;SDS011;41061;52.822;6.860;2022-12-19T07:38:43;46.15;;;17.75;;
55172;SDS011;41061;52.822;6.860;2022-12-19T07:41:09;36.10;;;17.08;;
55172;SDS011;41061;52.822;6.860;2022-12-19T07:43:35;35.03;;;16.92;;
55172;SDS011;41061;52.822;6.860;2022-12-19T07:46:00;41.03;;;17.58;;
55172;SDS011;41061;52.822;6.860;2022-12-19T07:48:26;43.25;;;18.30;;
55172;SDS011;41061;52.822;6.860;2022-12-19T07:50:54;36.45;;;16.88;;
55172;SDS011;41061;52.822;6.860;2022-12-19T07:53:19;39.65;;;16.58;;
55172;SDS011;41061;52.822;6.860;2022-12-19T07:55:48;36.30;;;16.52;;
55172;SDS011;41061;52.822;6.860;2022-12-19T07:58:14;34.28;;;15.82;;
55172;SDS011;41061;52.822;6.860;2022-12-19T08:00:40;37.17;;;16.15;;
55172;SDS011;41061;52.822;6.860;2022-12-19T08:03:06;29.95;;;15.00;;
55172;SDS011;41061;52.822;6.860;2022-12-19T08:05:32;27.42;;;14.35;;
55172;SDS011;41061;52.822;6.860;2022-12-19T08:07:58;36.60;;;15.52;;
55172;SDS011;41061;52.822;6.860;2022-12-19T08:10:24;29.25;;;14.60;;
55172;SDS011;41061;52.822;6.860;2022-12-19T08:12:49;35.38;;;15.38;;
55172;SDS011;41061;52.822;6.860;2022-12-19T08:15:15;27.83;;;13.93;;
55172;SDS011;41061;52.822;6.860;2022-12-19T08:17:41;37.65;;;16.27;;
55172;SDS011;41061;52.822;6.860;2022-12-19T08:20:07;31.40;;;14.55;;
55172;SDS011;41061;52.822;6.860;2022-12-19T08:22:35;33.22;;;15.43;;
55172;SDS011;41061;52.822;6.860;2022-12-19T08:25:01;34.03;;;16.02;;
55172;SDS011;41061;52.822;6.860;2022-12-19T08:27:26;31.73;;;14.18;;
55172;SDS011;41061;52.822;6.860;2022-12-19T08:29:52;30.35;;;14.35;;
55172;SDS011;41061;52.822;6.860;2022-12-19T08:32:18;39.75;;;15.52;;
55172;SDS011;41061;52.822;6.860;2022-12-19T08:34:44;27.63;;;13.80;;
55172;SDS011;41061;52.822;6.860;2022-12-19T08:37:10;32.08;;;14.73;;
55172;SDS011;41061;52.822;6.860;2022-12-19T08:39:36;28.05;;;14.48;;
55172;SDS011;41061;52.822;6.860;2022-12-19T08:42:01;28.33;;;13.45;;
55172;SDS011;41061;52.822;6.860;2022-12-19T08:44:27;28.90;;;13.73;;
55172;SDS011;41061;52.822;6.860;2022-12-19T08:46:53;30.83;;;13.38;;
55172;SDS011;41061;52.822;6.860;2022-12-19T08:49:19;25.77;;;13.30;;
55172;SDS011;41061;52.822;6.860;2022-12-19T08:51:45;36.05;;;15.02;;
55172;SDS011;41061;52.822;6.860;2022-12-19T08:54:11;31.45;;;15.10;;
55172;SDS011;41061;52.822;6.860;2022-12-19T08:56:37;31.98;;;14.50;;
55172;SDS011;41061;52.822;6.860;2022-12-19T08:59:03;32.38;;;14.73;;
55172;SDS011;41061;52.822;6.860;2022-12-19T09:01:29;35.80;;;15.48;;
55172;SDS011;41061;52.822;6.860;2022-12-19T09:03:57;35.13;;;15.43;;
55172;SDS011;41061;52.822;6.860;2022-12-19T09:06:24;33.45;;;14.80;;
55172;SDS011;41061;52.822;6.860;2022-12-19T09:08:50;41.03;;;15.98;;
55172;SDS011;41061;52.822;6.860;2022-12-19T09:11:19;33.60;;;15.95;;
55172;SDS011;41061;52.822;6.860;2022-12-19T09:13:45;32.30;;;15.82;;
55172;SDS011;41061;52.822;6.860;2022-12-19T09:16:13;29.60;;;15.23;;
55172;SDS011;41061;52.822;6.860;2022-12-19T09:18:40;29.83;;;16.42;;
55172;SDS011;41061;52.822;6.860;2022-12-19T09:21:08;33.80;;;16.83;;
55172;SDS011;41061;52.822;6.860;2022-12-19T09:23:34;36.00;;;17.02;;
55172;SDS011;41061;52.822;6.860;2022-12-19T09:26:19;34.28;;;16.42;;
55172;SDS011;41061;52.822;6.860;2022-12-19T09:28:47;33.55;;;16.45;;
55172;SDS011;41061;52.822;6.860;2022-12-19T09:31:17;33.35;;;17.60;;
55172;SDS011;41061;52.822;6.860;2022-12-19T09:33:46;34.03;;;16.40;;
55172;SDS011;41061;52.822;6.860;2022-12-19T09:36:16;36.97;;;16.90;;
55172;SDS011;41061;52.822;6.860;2022-12-19T09:38:47;35.42;;;16.75;;
55172;SDS011;41061;52.822;6.860;2022-12-19T09:46:57;35.38;;;17.50;;
55172;SDS011;41061;52.822;6.860;2022-12-19T09:49:31;36.85;;;17.05;;
55172;SDS011;41061;52.822;6.860;2022-12-19T09:54:54;36.70;;;17.02;;
55172;SDS011;41061;52.822;6.860;2022-12-19T09:58:22;39.95;;;16.65;;
55172;SDS011;41061;52.822;6.860;2022-12-19T10:01:00;31.45;;;15.15;;
55172;SDS011;41061;52.822;6.860;2022-12-19T10:03:31;31.65;;;16.35;;
55172;SDS011;41061;52.822;6.860;2022-12-19T10:08:36;25.08;;;14.85;;
55172;SDS011;41061;52.822;6.860;2022-12-19T10:21:23;29.40;;;14.15;;
55172;SDS011;41061;52.822;6.860;2022-12-19T10:29:59;23.45;;;13.07;;
55172;SDS011;41061;52.822;6.860;2022-12-19T10:34:38;21.45;;;12.05;;
55172;SDS011;41061;52.822;6.860;2022-12-19T10:37:16;21.48;;;12.82;;
55172;SDS011;41061;52.822;6.860;2022-12-19T10:39:53;24.15;;;12.70;;
55172;SDS011;41061;52.822;6.860;2022-12-19T10:42:29;23.42;;;12.25;;
55172;SDS011;41061;52.822;6.860;2022-12-19T10:45:03;19.63;;;12.60;;
55172;SDS011;41061;52.822;6.860;2022-12-19T10:47:33;22.77;;;12.00;;
55172;SDS011;41061;52.822;6.860;2022-12-19T10:49:59;22.13;;;12.65;;
55172;SDS011;41061;52.822;6.860;2022-12-19T11:01:08;21.55;;;11.55;;
55172;SDS011;41061;52.822;6.860;2022-12-19T11:03:43;18.60;;;10.40;;
55172;SDS011;41061;52.822;6.860;2022-12-19T11:11:45;23.05;;;11.98;;
55172;SDS011;41061;52.822;6.860;2022-12-19T11:14:24;17.60;;;10.38;;
55172;SDS011;41061;52.822;6.860;2022-12-19T11:16:50;25.27;;;11.95;;
55172;SDS011;41061;52.822;6.860;2022-12-19T11:19:21;20.85;;;11.88;;
55172;SDS011;41061;52.822;6.860;2022-12-19T11:21:52;19.30;;;10.93;;
55172;SDS011;41061;52.822;6.860;2022-12-19T11:24:24;23.90;;;11.50;;
55172;SDS011;41061;52.822;6.860;2022-12-19T11:26:59;19.48;;;11.07;;
55172;SDS011;41061;52.822;6.860;2022-12-19T11:29:27;19.38;;;11.07;;
55172;SDS011;41061;52.822;6.860;2022-12-19T11:32:20;18.60;;;10.65;;
55172;SDS011;41061;52.822;6.860;2022-12-19T11:34:51;19.15;;;11.13;;
55172;SDS011;41061;52.822;6.860;2022-12-19T11:37:54;18.77;;;10.93;;
55172;SDS011;41061;52.822;6.860;2022-12-19T11:43:05;17.65;;;10.10;;
55172;SDS011;41061;52.822;6.860;2022-12-19T11:45:57;20.50;;;11.38;;
55172;SDS011;41061;52.822;6.860;2022-12-19T11:48:39;18.30;;;11.52;;
55172;SDS011;41061;52.822;6.860;2022-12-19T11:51:13;19.17;;;10.65;;
55172;SDS011;41061;52.822;6.860;2022-12-19T11:56:41;16.83;;;9.98;;
55172;SDS011;41061;52.822;6.860;2022-12-19T11:59:11;17.95;;;9.95;;
55172;SDS011;41061;52.822;6.860;2022-12-19T12:01:59;17.30;;;10.23;;
55172;SDS011;41061;52.822;6.860;2022-12-19T12:07:27;16.42;;;9.50;;
55172;SDS011;41061;52.822;6.860;2022-12-19T12:12:44;17.58;;;10.57;;
55172;SDS011;41061;52.822;6.860;2022-12-19T12:15:50;19.15;;;10.73;;
55172;SDS011;41061;52.822;6.860;2022-12-19T12:24:02;17.10;;;10.13;;
55172;SDS011;41061;52.822;6.860;2022-12-19T12:32:15;18.00;;;9.80;;
55172;SDS011;41061;52.822;6.860;2022-12-19T12:34:48;18.38;;;10.20;;
55172;SDS011;41061;52.822;6.860;2022-12-19T12:40:01;13.95;;;9.27;;
55172;SDS011;41061;52.822;6.860;2022-12-19T12:45:24;13.70;;;9.18;;
55172;SDS011;41061;52.822;6.860;2022-12-19T12:47:55;15.75;;;9.18;;
55172;SDS011;41061;52.822;6.860;2022-12-19T12:50:21;18.58;;;8.73;;
55172;SDS011;41061;52.822;6.860;2022-12-19T12:52:53;14.35;;;8.80;;
55172;SDS011;41061;52.822;6.860;2022-12-19T12:57:58;14.73;;;9.05;;
55172;SDS011;41061;52.822;6.860;2022-12-19T13:00:28;17.95;;;9.48;;
55172;SDS011;41061;52.822;6.860;2022-12-19T13:03:11;18.05;;;9.63;;
55172;SDS011;41061;52.822;6.860;2022-12-19T13:11:05;13.93;;;8.68;;
55172;SDS011;41061;52.822;6.860;2022-12-19T13:13:56;18.60;;;8.95;;
55172;SDS011;41061;52.822;6.860;2022-12-19T13:19:24;14.77;;;9.13;;
55172;SDS011;41061;52.822;6.860;2022-12-19T13:30:12;18.33;;;8.98;;
55172;SDS011;41061;52.822;6.860;2022-12-19T13:37:45;14.77;;;8.57;;
55172;SDS011;41061;52.822;6.860;2022-12-19T13:40:22;14.35;;;8.05;;
55172;SDS011;41061;52.822;6.860;2022-12-19T13:45:46;16.88;;;8.35;;
55172;SDS011;41061;52.822;6.860;2022-12-19T13:48:25;12.82;;;7.97;;
55172;SDS011;41061;52.822;6.860;2022-12-19T13:50:55;13.82;;;8.55;;
55172;SDS011;41061;52.822;6.860;2022-12-19T13:53:28;10.65;;;7.82;;
55172;SDS011;41061;52.822;6.860;2022-12-19T13:55:57;13.25;;;8.18;;
55172;SDS011;41061;52.822;6.860;2022-12-19T13:58:25;14.63;;;7.75;;
55172;SDS011;41061;52.822;6.860;2022-12-19T14:00:57;14.98;;;7.88;;
55172;SDS011;41061;52.822;6.860;2022-12-19T14:03:39;11.13;;;8.18;;
55172;SDS011;41061;52.822;6.860;2022-12-19T14:06:09;10.95;;;8.15;;
55172;SDS011;41061;52.822;6.860;2022-12-19T14:08:43;14.88;;;7.63;;
55172;SDS011;41061;52.822;6.860;2022-12-19T14:11:11;11.13;;;7.47;;
55172;SDS011;41061;52.822;6.860;2022-12-19T14:13:48;11.73;;;8.00;;
55172;SDS011;41061;52.822;6.860;2022-12-19T14:16:35;12.70;;;7.50;;
55172;SDS011;41061;52.822;6.860;2022-12-19T14:19:01;15.23;;;7.28;;
55172;SDS011;41061;52.822;6.860;2022-12-19T14:21:27;10.95;;;7.70;;
55172;SDS011;41061;52.822;6.860;2022-12-19T14:24:09;12.93;;;7.60;;
55172;SDS011;41061;52.822;6.860;2022-12-19T14:26:42;10.95;;;7.10;;
55172;SDS011;41061;52.822;6.860;2022-12-19T14:29:52;10.98;;;6.97;;
55172;SDS011;41061;52.822;6.860;2022-12-19T14:32:06;14.52;;;7.78;;
55172;SDS011;41061;52.822;6.860;2022-12-19T14:34:32;12.52;;;6.57;;
55172;SDS011;41061;52.822;6.860;2022-12-19T14:36:59;11.90;;;7.03;;
55172;SDS011;41061;52.822;6.860;2022-12-19T14:39:27;13.20;;;7.32;;
55172;SDS011;41061;52.822;6.860;2022-12-19T14:42:03;10.63;;;6.50;;
55172;SDS011;41061;52.822;6.860;2022-12-19T14:44:55;13.05;;;6.78;;
55172;SDS011;41061;52.822;6.860;2022-12-19T14:47:22;12.30;;;6.53;;
55172;SDS011;41061;52.822;6.860;2022-12-19T14:55:42;8.02;;;6.28;;
55172;SDS011;41061;52.822;6.860;2022-12-19T14:58:26;12.15;;;7.25;;
55172;SDS011;41061;52.822;6.860;2022-12-19T15:00:55;13.82;;;7.05;;
55172;SDS011;41061;52.822;6.860;2022-12-19T15:03:25;13.85;;;7.28;;
55172;SDS011;41061;52.822;6.860;2022-12-19T15:09:04;9.30;;;6.57;;
55172;SDS011;41061;52.822;6.860;2022-12-19T15:11:32;12.70;;;7.63;;
55172;SDS011;41061;52.822;6.860;2022-12-19T15:14:25;13.82;;;6.75;;
55172;SDS011;41061;52.822;6.860;2022-12-19T15:17:02;13.82;;;7.18;;
55172;SDS011;41061;52.822;6.860;2022-12-19T15:19:41;9.63;;;6.78;;
55172;SDS011;41061;52.822;6.860;2022-12-19T15:22:06;11.75;;;7.20;;
55172;SDS011;41061;52.822;6.860;2022-12-19T15:24:32;12.50;;;7.15;;
55172;SDS011;41061;52.822;6.860;2022-12-19T15:26:58;13.27;;;8.15;;
55172;SDS011;41061;52.822;6.860;2022-12-19T15:29:25;16.08;;;8.05;;
55172;SDS011;41061;52.822;6.860;2022-12-19T15:31:51;11.85;;;7.45;;
55172;SDS011;41061;52.822;6.860;2022-12-19T15:36:50;11.13;;;7.30;;
55172;SDS011;41061;52.822;6.860;2022-12-19T15:39:17;12.98;;;8.05;;
55172;SDS011;41061;52.822;6.860;2022-12-19T15:41:44;12.15;;;7.88;;
55172;SDS011;41061;52.822;6.860;2022-12-19T15:44:15;13.30;;;8.70;;
55172;SDS011;41061;52.822;6.860;2022-12-19T15:47:09;15.35;;;8.13;;
55172;SDS011;41061;52.822;6.860;2022-12-19T15:49:52;12.73;;;8.25;;
55172;SDS011;41061;52.822;6.860;2022-12-19T15:52:18;14.75;;;7.85;;
55172;SDS011;41061;52.822;6.860;2022-12-19T15:54:45;14.38;;;7.85;;
55172;SDS011;41061;52.822;6.860;2022-12-19T15:59:49;13.45;;;8.00;;
55172;SDS011;41061;52.822;6.860;2022-12-19T16:02:16;14.00;;;8.85;;
55172;SDS011;41061;52.822;6.860;2022-12-19T16:04:45;12.30;;;8.45;;
55172;SDS011;41061;52.822;6.860;2022-12-19T16:07:13;12.65;;;8.88;;
55172;SDS011;41061;52.822;6.860;2022-12-19T16:09:40;13.60;;;8.73;;
55172;SDS011;41061;52.822;6.860;2022-12-19T16:12:08;16.30;;;9.32;;
55172;SDS011;41061;52.822;6.860;2022-12-19T16:14:38;14.88;;;8.82;;
55172;SDS011;41061;52.822;6.860;2022-12-19T16:17:05;15.02;;;8.40;;
55172;SDS011;41061;52.822;6.860;2022-12-19T16:19:34;16.38;;;9.43;;
55172;SDS011;41061;52.822;6.860;2022-12-19T16:22:00;14.02;;;8.70;;
55172;SDS011;41061;52.822;6.860;2022-12-19T16:24:26;15.27;;;8.63;;
55172;SDS011;41061;52.822;6.860;2022-12-19T16:26:55;14.07;;;8.95;;
55172;SDS011;41061;52.822;6.860;2022-12-19T16:29:26;14.75;;;9.15;;
55172;SDS011;41061;52.822;6.860;2022-12-19T16:31:53;12.13;;;8.80;;
55172;SDS011;41061;52.822;6.860;2022-12-19T16:34:20;14.10;;;8.52;;
55172;SDS011;41061;52.822;6.860;2022-12-19T16:36:48;13.88;;;9.27;;
55172;SDS011;41061;52.822;6.860;2022-12-19T16:39:14;14.40;;;8.98;;
55172;SDS011;41061;52.822;6.860;2022-12-19T16:41:40;20.02;;;8.95;;
55172;SDS011;41061;52.822;6.860;2022-12-19T16:44:14;14.05;;;8.02;;
55172;SDS011;41061;52.822;6.860;2022-12-19T16:46:42;12.50;;;8.57;;
55172;SDS011;41061;52.822;6.860;2022-12-19T16:49:15;16.17;;;9.10;;
55172;SDS011;41061;52.822;6.860;2022-12-19T16:51:42;17.77;;;9.70;;
55172;SDS011;41061;52.822;6.860;2022-12-19T16:54:10;14.68;;;8.60;;
55172;SDS011;41061;52.822;6.860;2022-12-19T16:56:38;15.85;;;9.05;;
55172;SDS011;41061;52.822;6.860;2022-12-19T16:59:30;17.08;;;8.88;;
55172;SDS011;41061;52.822;6.860;2022-12-19T17:01:58;13.60;;;8.80;;
55172;SDS011;41061;52.822;6.860;2022-12-19T17:04:25;18.98;;;9.70;;
55172;SDS011;41061;52.822;6.860;2022-12-19T17:06:52;13.18;;;9.15;;
55172;SDS011;41061;52.822;6.860;2022-12-19T17:09:20;21.88;;;9.15;;
55172;SDS011;41061;52.822;6.860;2022-12-19T17:11:49;13.70;;;9.07;;